Time;durP1;ratioP1;P1;durP2;ratioP2;P2;SDS_P1;SDS_P2;PMS_P1;PMS_P2;Temp;Humidity;BMP_temperature;BMP_pressure;BME280_temperature;BME280_humidity;BME280_pressure;Samples;Min_cycle;Max_cycle;Signal;HPM_P1;HPM_P2
2021/10/01 00:01:57;;;;;;;2.85;1.38;;;;;;;17.90;38.94;101718.19;4991212;28;20050;-73
2021/10/01 00:04:25;;;;;;;3.15;1.67;;;;;;;17.89;39.13;101714.56;4990049;28;20074;-74
2021/10/01 00:06:52;;;;;;;3.80;1.55;;;;;;;17.88;39.10;101705.44;4977884;28;20050;-74
2021/10/01 00:09:19;;;;;;;4.72;1.45;;;;;;;17.87;38.82;101702.84;4989989;28;20073;-74
2021/10/01 00:11:54;;;;;;;2.50;1.45;;;;;;;17.86;39.02;101704.72;4991788;28;20125;-73
2021/10/01 00:14:24;;;;;;;2.40;1.20;;;;;;;17.86;38.71;101698.34;4989639;28;20046;-73
2021/10/01 00:16:52;;;;;;;4.40;1.50;;;;;;;17.83;39.32;101690.34;4977803;28;20100;-74
2021/10/01 00:19:20;;;;;;;4.05;1.73;;;;;;;17.83;38.96;101693.97;4990671;28;20710;-73
2021/10/01 00:21:47;;;;;;;3.42;1.50;;;;;;;17.82;39.26;101689.50;4988757;28;20080;-73
2021/10/01 00:24:15;;;;;;;2.95;1.27;;;;;;;17.84;39.09;101692.09;4973788;28;20050;-74
2021/10/01 00:26:43;;;;;;;3.03;1.30;;;;;;;17.81;39.38;101687.75;4991834;28;20113;-73
2021/10/01 00:29:10;;;;;;;3.35;1.30;;;;;;;17.80;39.03;101682.38;4989480;28;20053;-74
2021/10/01 00:31:37;;;;;;;3.17;1.40;;;;;;;17.79;39.42;101686.97;4972790;28;20058;-73
2021/10/01 00:34:06;;;;;;;3.55;1.30;;;;;;;17.79;39.07;101677.88;4990252;28;20417;-74
2021/10/01 00:36:33;;;;;;;3.05;1.45;;;;;;;17.77;39.05;101669.78;4980857;28;20105;-73
2021/10/01 00:39:00;;;;;;;3.00;1.33;;;;;;;17.77;39.06;101668.91;4989857;28;20445;-73
2021/10/01 00:41:28;;;;;;;4.00;1.50;;;;;;;17.75;39.09;101670.91;4989436;28;20477;-74
2021/10/01 00:43:55;;;;;;;3.95;1.55;;;;;;;17.73;39.04;101657.28;4984561;28;20163;-74
2021/10/01 00:46:22;;;;;;;2.55;1.42;;;;;;;17.74;39.45;101666.41;4971240;28;20050;-74
2021/10/01 00:48:49;;;;;;;6.00;1.52;;;;;;;17.71;39.35;101664.78;4990271;28;20058;-74
2021/10/01 00:51:17;;;;;;;3.15;1.40;;;;;;;17.71;39.25;101650.16;4989662;28;20754;-74
2021/10/01 00:53:44;;;;;;;2.15;1.20;;;;;;;17.68;39.11;101659.56;4994825;28;20057;-74
2021/10/01 00:56:12;;;;;;;4.05;1.65;;;;;;;17.68;39.20;101658.69;4974849;28;20062;-74
2021/10/01 00:58:38;;;;;;;3.30;1.45;;;;;;;17.65;39.19;101662.56;4989479;28;20661;-73
2021/10/01 01:01:11;;;;;;;3.95;1.30;;;;;;;17.64;39.20;101658.06;4989427;28;20143;-73
2021/10/01 01:03:55;;;;;;;;;;;;;;;17.40;40.02;101651.84;4990821;28;20058;-74
2021/10/01 01:06:46;;;;;;;2.83;1.33;;;;;;;17.59;39.85;101649.31;4976439;28;19949;-74
2021/10/01 01:09:30;;;;;;;2.47;0.98;;;;;;;17.59;39.36;101646.56;4991735;28;20128;-74
2021/10/01 01:12:04;;;;;;;2.58;1.40;;;;;;;17.59;39.31;101631.97;4994546;28;20046;-74
2021/10/01 01:14:43;;;;;;;3.78;1.35;;;;;;;17.58;39.84;101635.72;4976333;28;20078;-74
2021/10/01 01:17:19;;;;;;;3.45;1.90;;;;;;;17.53;39.50;101632.50;4977020;28;20058;-74
2021/10/01 01:20:02;;;;;;;5.28;1.52;;;;;;;17.50;39.19;101628.13;4992759;28;20070;-74
2021/10/01 01:22:41;;;;;;;2.05;1.13;;;;;;;17.52;39.85;101628.88;4992336;28;20077;-74
2021/10/01 01:25:53;;;;;;;3.60;1.40;;;;;;;17.42;39.69;101623.28;4994238;28;20046;-74
2021/10/01 01:28:41;;;;;;;3.83;1.52;;;;;;;17.44;39.86;101626.75;4945957;28;20074;-74
2021/10/01 01:31:54;;;;;;;2.03;1.15;;;;;;;17.42;39.71;101619.66;4993867;28;20046;-74
2021/10/01 01:34:29;;;;;;;3.92;1.52;;;;;;;17.41;39.78;101623.38;4969277;28;20061;-74
2021/10/01 01:37:00;;;;;;;3.92;1.70;;;;;;;17.43;39.53;101626.88;4992436;28;20135;-74
2021/10/01 01:39:28;;;;;;;2.03;1.10;;;;;;;17.40;39.27;101621.63;4993309;28;20092;-73
2021/10/01 01:41:59;;;;;;;3.83;1.70;;;;;;;17.39;39.72;101608.91;4993401;28;20054;-74
2021/10/01 01:44:28;;;;;;;3.40;1.23;;;;;;;17.38;40.05;101608.03;4983100;28;20134;-74
2021/10/01 01:46:57;;;;;;;3.10;1.33;;;;;;;17.36;39.54;101604.56;4992748;28;20089;-74
2021/10/01 01:49:24;;;;;;;2.97;1.20;;;;;;;17.33;39.92;101607.56;4991372;28;20189;-74
2021/10/01 01:51:52;;;;;;;2.78;1.30;;;;;;;17.31;39.89;101606.81;4993394;28;20078;-74
2021/10/01 01:54:20;;;;;;;3.83;1.42;;;;;;;17.28;40.00;101607.09;4998005;28;20054;-74
2021/10/01 01:56:47;;;;;;;3.50;1.23;;;;;;;17.28;39.56;101603.47;4991322;28;20112;-74
2021/10/01 01:59:15;;;;;;;2.95;1.55;;;;;;;17.26;39.66;101598.09;4993034;28;20104;-74
2021/10/01 02:01:42;;;;;;;4.00;1.30;;;;;;;17.24;39.87;101586.38;4992491;28;20112;-74
2021/10/01 02:04:10;;;;;;;3.33;1.40;;;;;;;17.22;39.80;101595.72;4992081;28;20050;-74
2021/10/01 02:06:38;;;;;;;3.83;1.20;;;;;;;17.19;39.59;101591.38;4992538;28;20086;-74
2021/10/01 02:09:05;;;;;;;2.20;1.13;;;;;;;17.18;40.14;101597.84;4992564;28;20578;-74
2021/10/01 02:11:32;;;;;;;3.80;1.38;;;;;;;17.16;40.03;101591.63;4993088;28;20050;-74
2021/10/01 02:14:00;;;;;;;2.40;1.15;;;;;;;17.15;39.90;101592.63;4991729;28;20101;-74
2021/10/01 02:16:29;;;;;;;4.70;1.38;;;;;;;17.15;39.62;101586.25;4992256;28;20153;-74
2021/10/01 02:18:58;;;;;;;2.40;1.00;;;;;;;17.13;39.92;101578.13;4991795;28;20118;-74
2021/10/01 02:21:27;;;;;;;2.92;1.10;;;;;;;17.10;39.67;101579.28;4988858;28;20058;-74
2021/10/01 02:23:54;;;;;;;3.05;1.08;;;;;;;17.09;39.74;101582.16;4992056;28;20050;-74
2021/10/01 02:26:46;;;;;;;2.53;1.27;;;;;;;17.09;39.78;101572.06;4992710;28;20050;-74
2021/10/01 02:29:16;;;;;;;2.50;1.08;;;;;;;17.05;39.74;101566.94;4987622;28;20050;-74
2021/10/01 02:32:04;;;;;;;2.65;1.17;;;;;;;17.05;39.81;101558.69;4991534;28;20096;-73
2021/10/01 02:34:39;;;;;;;2.35;1.17;;;;;;;17.04;39.84;101556.97;4991376;28;20085;-74
2021/10/01 02:37:07;;;;;;;3.60;1.27;;;;;;;17.00;39.69;101560.97;4985806;28;20081;-73
2021/10/01 02:39:39;;;;;;;2.10;1.13;;;;;;;17.01;40.34;101557.22;4990684;28;20045;-74
2021/10/01 02:42:07;;;;;;;3.13;1.17;;;;;;;16.96;39.90;101554.00;4999795;28;20054;-74
2021/10/01 02:44:36;;;;;;;3.17;1.45;;;;;;;16.95;39.87;101544.91;4990428;28;20149;-74
2021/10/01 02:47:04;;;;;;;4.45;1.52;;;;;;;16.94;40.37;101548.63;4992541;28;20073;-74
2021/10/01 02:49:31;;;;;;;3.45;1.33;;;;;;;16.92;40.07;101542.41;4988681;28;20133;-74
2021/10/01 02:52:07;;;;;;;2.83;1.30;;;;;;;16.92;40.35;101542.41;4985050;28;20058;-74
2021/10/01 02:54:41;;;;;;;3.03;1.10;;;;;;;16.90;40.29;101544.38;4989153;28;20050;-74
2021/10/01 02:57:14;;;;;;;2.03;1.17;;;;;;;16.89;40.31;101544.50;4990825;28;20077;-74
2021/10/01 02:59:44;;;;;;;2.05;1.15;;;;;;;16.84;40.27;101536.66;4989145;28;20050;-74
2021/10/01 03:02:13;;;;;;;2.70;1.25;;;;;;;16.84;40.33;101544.03;4992251;28;20089;-74
2021/10/01 03:04:45;;;;;;;3.45;1.50;;;;;;;16.84;40.47;101550.38;4989393;28;20055;-74
2021/10/01 03:07:13;;;;;;;3.53;0.93;;;;;;;16.79;40.19;101527.97;4991446;28;20081;-74
2021/10/01 03:09:41;;;;;;;2.53;1.08;;;;;;;16.78;40.33;101537.19;4989305;28;20070;-74
2021/10/01 03:12:10;;;;;;;2.70;1.25;;;;;;;16.76;40.63;101524.59;4990527;28;20054;-74
2021/10/01 03:14:38;;;;;;;2.45;1.10;;;;;;;16.76;40.33;101525.47;4985153;28;20054;-74
2021/10/01 03:17:06;;;;;;;2.85;1.20;;;;;;;16.74;40.15;101521.97;4993130;28;20077;-74
2021/10/01 03:19:34;;;;;;;3.03;1.33;;;;;;;16.74;40.54;101516.47;4998824;28;20444;-74
2021/10/01 03:22:03;;;;;;;3.45;1.27;;;;;;;16.71;40.67;101523.09;4992233;28;20105;-74
2021/10/01 03:24:31;;;;;;;1.98;1.10;;;;;;;16.69;40.70;101524.22;4990766;28;20057;-74
2021/10/01 03:26:58;;;;;;;3.80;1.20;;;;;;;16.68;40.40;101528.84;4989957;28;20524;-74
2021/10/01 03:29:25;;;;;;;3.85;1.23;;;;;;;16.67;40.80;101531.69;4973247;28;20131;-74
2021/10/01 03:31:51;;;;;;;2.85;1.30;;;;;;;16.67;40.62;101526.22;4987963;28;20156;-74
2021/10/01 03:34:18;;;;;;;2.30;1.55;;;;;;;16.65;40.72;101528.19;4991137;28;20070;-74
2021/10/01 03:36:45;;;;;;;2.67;1.00;;;;;;;16.63;40.69;101522.88;4990797;28;20058;-74
2021/10/01 03:39:12;;;;;;;4.65;1.30;;;;;;;16.62;40.75;101525.72;4991044;28;20058;-74
2021/10/01 03:41:39;;;;;;;2.38;1.02;;;;;;;16.62;40.63;101520.25;4991098;28;20050;-74
2021/10/01 03:44:05;;;;;;;2.80;1.15;;;;;;;16.62;40.75;101512.00;4976572;28;20567;-74
2021/10/01 03:46:32;;;;;;;2.25;1.35;;;;;;;16.61;40.50;101521.25;4994443;28;20077;-74
2021/10/01 03:48:58;;;;;;;4.20;1.25;;;;;;;16.61;40.68;101513.00;4990988;28;20137;-74
2021/10/01 03:51:25;;;;;;;2.35;1.30;;;;;;;16.61;40.75;101511.13;4972320;28;20557;-74
2021/10/01 03:53:54;;;;;;;2.92;1.40;;;;;;;16.61;40.90;101511.13;4990492;28;20066;-74
2021/10/01 03:56:20;;;;;;;3.97;1.75;;;;;;;16.61;40.66;101510.25;4986082;28;20478;-74
2021/10/01 03:58:48;;;;;;;2.05;1.30;;;;;;;16.61;40.79;101510.25;4990543;28;20073;-73
2021/10/01 04:01:15;;;;;;;2.58;1.13;;;;;;;16.61;40.85;101513.88;4989909;28;20405;-74
2021/10/01 04:03:43;;;;;;;3.97;1.60;;;;;;;16.61;40.50;101504.78;4986326;28;20050;-73
2021/10/01 04:06:10;;;;;;;3.55;1.52;;;;;;;16.59;40.58;101496.66;4989579;28;20054;-74
2021/10/01 04:08:36;;;;;;;2.85;1.42;;;;;;;16.59;40.60;101507.63;4984868;28;20054;-74
2021/10/01 04:11:03;;;;;;;2.53;1.20;;;;;;;16.60;40.45;101498.41;4990462;28;20057;-74
2021/10/01 04:13:30;;;;;;;3.80;1.30;;;;;;;16.58;40.81;101486.69;4989434;28;20051;-74
2021/10/01 04:15:56;;;;;;;3.08;1.40;;;;;;;16.58;40.84;101489.41;4989157;28;20520;-74
2021/10/01 04:18:23;;;;;;;3.53;1.45;;;;;;;16.58;40.87;101483.94;4989326;28;20055;-74
2021/10/01 04:20:50;;;;;;;3.20;1.30;;;;;;;16.57;40.78;101484.94;4972395;28;20070;-74
2021/10/01 04:23:17;;;;;;;4.28;1.73;;;;;;;16.57;40.81;101479.44;4985839;28;20055;-74
2021/10/01 04:25:44;;;;;;;2.53;1.30;;;;;;;16.56;40.85;101479.56;4970060;28;20137;-74
2021/10/01 04:28:11;;;;;;;2.53;1.27;;;;;;;16.57;40.70;101484.94;4986331;28;20115;-74
2021/10/01 04:30:43;;;;;;;3.35;1.10;;;;;;;16.56;40.70;101477.69;4988633;28;20042;-74
2021/10/01 04:33:18;;;;;;;3.97;1.60;;;;;;;16.54;40.69;101474.22;4992524;28;20088;-75
2021/10/01 04:35:45;;;;;;;2.85;1.35;;;;;;;16.55;40.69;101473.25;4989204;28;20050;-74
2021/10/01 04:38:12;;;;;;;2.47;1.20;;;;;;;16.55;40.91;101477.84;4974946;28;20078;-74
2021/10/01 04:40:39;;;;;;;2.05;1.30;;;;;;;16.55;40.93;101475.97;4991557;28;20054;-74
2021/10/01 04:43:05;;;;;;;3.75;1.60;;;;;;;16.54;40.71;101471.50;4989832;28;20053;-74
2021/10/01 04:45:34;;;;;;;5.50;1.35;;;;;;;16.54;40.63;101466.00;4998747;28;20137;-74
2021/10/01 04:48:05;;;;;;;2.70;1.20;;;;;;;16.57;40.61;101470.34;4992867;28;20057;-74
2021/10/01 04:50:33;;;;;;;2.40;1.38;;;;;;;16.54;40.74;101465.13;5003280;28;20062;-74
2021/10/01 04:53:00;;;;;;;2.65;1.20;;;;;;;16.53;40.74;101471.63;5004081;28;20108;-75
2021/10/01 04:55:28;;;;;;;3.38;1.50;;;;;;;16.52;40.87;101472.59;4995323;28;20120;-75
2021/10/01 04:57:55;;;;;;;2.47;1.20;;;;;;;16.53;40.76;101471.63;4993167;28;20108;-75
2021/10/01 05:00:22;;;;;;;2.75;1.40;;;;;;;16.51;40.61;101462.63;4978842;28;20054;-75
2021/10/01 05:02:49;;;;;;;2.47;1.45;;;;;;;16.50;40.87;101464.50;4996819;28;20444;-75
2021/10/01 05:05:16;;;;;;;3.55;1.45;;;;;;;16.50;40.36;101447.19;4994888;28;20346;-75
2021/10/01 05:07:42;;;;;;;2.70;1.45;;;;;;;16.49;40.78;101450.91;4991045;28;20125;-75
2021/10/01 05:10:11;;;;;;;3.42;1.45;;;;;;;16.50;40.75;101455.41;4991625;28;20363;-75
2021/10/01 05:12:39;;;;;;;3.33;1.60;;;;;;;16.47;40.63;101453.78;4986532;28;20460;-73
2021/10/01 05:15:07;;;;;;;3.17;1.30;;;;;;;16.47;40.93;101444.72;4991223;28;20050;-73
2021/10/01 05:17:34;;;;;;;2.30;1.30;;;;;;;16.46;40.93;101443.84;4989971;28;20080;-74
2021/10/01 05:20:01;;;;;;;3.70;1.70;;;;;;;16.46;40.98;101451.19;4999773;28;20054;-77
2021/10/01 05:22:28;;;;;;;2.60;1.20;;;;;;;16.45;40.68;101452.19;4974905;28;20169;-76
2021/10/01 05:24:55;;;;;;;3.97;1.25;;;;;;;16.45;40.86;101450.31;5008317;28;20050;-76
2021/10/01 05:27:21;;;;;;;3.83;1.48;;;;;;;16.44;40.59;101447.69;4991756;28;20105;-78
2021/10/01 05:29:48;;;;;;;4.57;1.50;;;;;;;16.44;40.63;101445.81;4993363;28;20438;-75
2021/10/01 05:32:15;;;;;;;3.65;1.67;;;;;;;16.43;40.41;101451.44;4992192;28;20042;-75
2021/10/01 05:34:41;;;;;;;3.33;1.70;;;;;;;16.43;40.66;101451.44;4992643;28;20450;-75
2021/10/01 05:37:08;;;;;;;4.10;1.52;;;;;;;16.42;40.88;101445.06;4991756;28;20046;-75
2021/10/01 05:39:35;;;;;;;2.75;1.48;;;;;;;16.43;40.85;101445.94;4991822;28;20081;-76
2021/10/01 05:42:01;;;;;;;2.78;1.20;;;;;;;16.42;40.71;101444.19;4984626;28;20047;-76
2021/10/01 05:44:28;;;;;;;3.45;1.38;;;;;;;16.40;40.82;101447.06;4995723;28;20042;-76
2021/10/01 05:46:55;;;;;;;3.63;1.30;;;;;;;16.41;40.78;101450.66;4994043;28;20053;-76
2021/10/01 05:49:27;;;;;;;2.92;1.23;;;;;;;16.40;41.09;101443.44;4995212;28;21787;-76
2021/10/01 05:52:02;;;;;;;3.60;1.40;;;;;;;16.36;40.61;101440.97;4979191;28;20042;-77
2021/10/01 05:54:28;;;;;;;4.10;1.40;;;;;;;16.36;40.89;101440.09;4984668;28;20070;-76
2021/10/01 05:56:56;;;;;;;2.40;1.20;;;;;;;16.37;40.47;101436.38;4997063;28;20117;-78
2021/10/01 05:59:23;;;;;;;4.05;1.30;;;;;;;16.35;40.58;101435.59;4999487;28;20111;-75
2021/10/01 06:01:50;;;;;;;2.97;1.15;;;;;;;16.33;40.92;101443.94;4999199;28;20077;-75
2021/10/01 06:04:20;;;;;;;3.67;1.40;;;;;;;16.30;40.92;101433.25;4991128;28;20061;-76
2021/10/01 06:06:46;;;;;;;3.90;1.30;;;;;;;16.29;40.92;101430.63;4992279;28;20382;-76
2021/10/01 06:09:15;;;;;;;4.38;1.63;;;;;;;16.27;40.64;101429.88;4992289;28;20133;-77
2021/10/01 06:11:42;;;;;;;5.38;1.75;;;;;;;16.27;40.51;101432.63;4976839;28;20038;-76
2021/10/01 06:14:10;;;;;;;4.97;1.35;;;;;;;16.23;40.83;101418.28;4993144;28;20108;-76
2021/10/01 06:16:37;;;;;;;4.65;1.60;;;;;;;16.23;40.74;101425.63;4973126;28;20496;-77
2021/10/01 06:19:04;;;;;;;3.00;1.83;;;;;;;16.21;41.20;101419.44;4992509;28;20042;-78
2021/10/01 06:21:30;;;;;;;4.13;1.52;;;;;;;16.20;40.87;101423.16;4991876;28;20401;-78
2021/10/01 06:23:57;;;;;;;3.47;1.45;;;;;;;16.20;41.04;101426.78;4984005;28;20070;-78
2021/10/01 06:26:24;;;;;;;3.58;1.60;;;;;;;16.18;40.79;101420.53;4993344;28;20105;-77
2021/10/01 06:28:50;;;;;;;5.53;1.17;;;;;;;16.19;41.18;101422.28;4993158;28;20054;-77
2021/10/01 06:31:17;;;;;;;2.40;1.20;;;;;;;16.20;40.84;101425.91;4976986;28;20047;-77
2021/10/01 06:33:44;;;;;;;4.32;1.27;;;;;;;16.20;41.30;101425.91;4998876;28;20050;-79
2021/10/01 06:36:12;;;;;;;5.45;1.58;;;;;;;16.21;41.06;101424.91;4991950;28;20047;-77
2021/10/01 06:38:39;;;;;;;3.08;1.50;;;;;;;16.24;41.50;101425.53;4991210;28;20058;-79
2021/10/01 06:41:06;;;;;;;4.35;1.50;;;;;;;16.27;41.42;101429.88;4993130;28;20054;-78
2021/10/01 06:43:32;;;;;;;4.95;1.42;;;;;;;16.30;41.45;101435.13;5000588;28;20109;-78
2021/10/01 06:46:17;;;;;;;2.35;1.13;;;;;;;16.36;41.48;101434.63;4993620;28;20397;-77
2021/10/01 06:49:10;;;;;;;3.53;1.25;;;;;;;16.34;41.26;101432.00;4974058;28;20141;-76
2021/10/01 06:51:48;;;;;;;;;;;;;;;16.13;41.76;101433.75;4991972;28;20054;-77
2021/10/01 08:19:45;;;;;;;1.65;0.98;;;;;;;17.41;40.71;101415.63;4965498;28;20106;-79
2021/10/01 08:22:13;;;;;;;2.30;1.10;;;;;;;17.47;40.51;101411.47;4960338;28;20042;-78
2021/10/01 08:24:40;;;;;;;1.92;1.00;;;;;;;17.52;40.77;101416.59;4994351;28;20046;-76
2021/10/01 08:27:07;;;;;;;2.17;1.05;;;;;;;17.55;40.48;101403.44;4995286;28;20090;-78
2021/10/01 08:29:34;;;;;;;3.63;1.10;;;;;;;17.59;40.34;101402.19;4993013;28;20058;-77
2021/10/01 08:32:02;;;;;;;2.17;1.00;;;;;;;17.63;40.70;101394.56;4984803;28;20105;-77
2021/10/01 08:34:31;;;;;;;2.90;1.00;;;;;;;17.67;40.35;101383.19;4991937;28;20046;-77
2021/10/01 08:36:59;;;;;;;2.63;1.08;;;;;;;17.68;40.49;101393.16;4978631;28;20050;-77
2021/10/01 08:39:27;;;;;;;2.20;1.10;;;;;;;17.73;40.66;101392.75;4985235;28;20050;-77
2021/10/01 08:41:54;;;;;;;3.10;0.95;;;;;;;17.76;40.65;101384.25;4981753;28;20055;-75
2021/10/01 08:44:26;;;;;;;1.95;1.08;;;;;;;17.83;40.14;101380.81;4992005;28;20054;-75
2021/10/01 08:46:54;;;;;;;3.60;1.10;;;;;;;17.83;40.74;101393.69;4994335;28;20485;-74
2021/10/01 08:49:23;;;;;;;3.33;1.30;;;;;;;17.90;40.18;101380.25;4992073;28;20062;-76
2021/10/01 08:51:50;;;;;;;1.80;0.85;;;;;;;17.95;40.40;101376.13;4993344;28;20058;-76
2021/10/01 08:54:18;;;;;;;2.42;1.10;;;;;;;18.01;40.45;101372.81;4992028;28;20070;-76
2021/10/01 08:56:45;;;;;;;1.98;1.00;;;;;;;18.05;40.12;101366.03;4995390;28;20078;-77
2021/10/01 08:59:12;;;;;;;2.50;1.00;;;;;;;18.10;40.15;101366.50;4998102;28;20108;-76
2021/10/01 09:01:38;;;;;;;1.38;0.90;;;;;;;18.18;40.29;101365.81;4992736;28;20054;-77
2021/10/01 09:04:07;;;;;;;2.85;1.27;;;;;;;18.23;40.22;101369.00;4992301;28;20050;-77
2021/10/01 09:06:33;;;;;;;1.58;0.95;;;;;;;18.31;40.49;101376.53;4992008;28;20097;-76
2021/10/01 09:09:05;;;;;;;2.92;1.20;;;;;;;18.40;40.36;101367.44;4988100;28;20073;-75
2021/10/01 09:11:37;;;;;;;2.95;1.10;;;;;;;18.47;39.89;101377.75;4974405;28;20054;-77
2021/10/01 09:14:07;;;;;;;1.88;0.90;;;;;;;18.57;40.15;101366.81;4991715;28;20054;-75
2021/10/01 09:16:35;;;;;;;2.45;1.00;;;;;;;18.64;40.08;101362.47;4976653;28;20058;-75
2021/10/01 09:19:04;;;;;;;2.45;0.80;;;;;;;18.75;39.78;101355.97;4993730;28;20058;-75
2021/10/01 09:21:45;;;;;;;1.50;0.60;;;;;;;18.84;39.56;101358.75;4992258;28;20038;-77
2021/10/01 09:24:14;;;;;;;3.20;0.88;;;;;;;18.89;39.61;101361.06;4988501;28;20054;-76
2021/10/01 09:26:50;;;;;;;2.33;0.75;;;;;;;18.98;39.46;101357.44;4997874;28;20072;-74
2021/10/01 09:29:33;;;;;;;3.00;0.80;;;;;;;19.04;38.96;101350.47;4987942;28;20085;-73
2021/10/01 09:32:08;;;;;;;2.13;0.90;;;;;;;19.07;39.32;101356.56;4989768;28;20038;-73
2021/10/01 09:34:38;;;;;;;1.85;0.90;;;;;;;19.14;39.17;101349.47;4974130;28;20461;-74
2021/10/01 09:37:05;;;;;;;1.85;0.98;;;;;;;19.20;39.62;101345.25;4985524;28;20055;-73
2021/10/01 09:39:35;;;;;;;2.08;0.95;;;;;;;19.27;39.51;101324.41;4985422;28;20050;-73
2021/10/01 09:42:15;;;;;;;1.58;0.60;;;;;;;19.36;38.70;101329.88;4986832;28;20051;-76
2021/10/01 09:44:51;;;;;;;2.78;0.90;;;;;;;19.43;39.34;101321.91;4987809;28;20083;-72
2021/10/01 09:47:25;;;;;;;2.55;0.80;;;;;;;19.55;38.81;101328.13;4973010;28;20050;-72
2021/10/01 09:49:57;;;;;;;1.65;0.70;;;;;;;19.65;39.09;101326.22;4992103;28;20128;-73
2021/10/01 09:52:24;;;;;;;3.45;0.98;;;;;;;19.70;39.27;101316.47;4995755;28;20442;-73
2021/10/01 09:55:04;;;;;;;1.65;0.70;;;;;;;19.87;38.33;101316.72;5000942;28;20058;-72
2021/10/01 09:57:31;;;;;;;3.83;1.00;;;;;;;19.94;38.89;101307.69;4989644;28;20054;-73
2021/10/01 09:59:57;;;;;;;2.05;0.80;;;;;;;20.06;39.18;101309.22;4991043;28;20077;-74
2021/10/01 10:02:24;;;;;;;2.67;0.90;;;;;;;20.18;39.25;101307.13;4987296;28;20086;-73
2021/10/01 10:04:55;;;;;;;1.25;0.80;;;;;;;20.32;38.68;101312.16;4976002;28;20133;-75
2021/10/01 10:07:28;;;;;;;2.45;0.98;;;;;;;20.46;37.87;101302.50;4988004;28;20054;-74
2021/10/01 10:10:07;;;;;;;2.15;0.90;;;;;;;20.55;38.27;101304.31;4991651;28;20481;-73
2021/10/01 10:12:34;;;;;;;4.05;0.90;;;;;;;20.64;38.33;101300.63;4991898;28;20101;-74
2021/10/01 10:15:05;;;;;;;4.30;0.80;;;;;;;20.78;37.91;101302.84;4992023;28;20493;-76
2021/10/01 10:17:32;;;;;;;2.13;0.93;;;;;;;20.87;38.08;101301.88;4989792;28;20049;-75
2021/10/01 10:20:00;;;;;;;1.75;0.85;;;;;;;21.01;37.96;101296.81;4983772;28;20050;-75
2021/10/01 10:22:30;;;;;;;1.75;0.88;;;;;;;21.12;37.89;101294.69;4986295;28;20046;-76
2021/10/01 10:24:57;;;;;;;3.08;1.10;;;;;;;21.22;37.61;101294.63;4990812;28;20109;-76
2021/10/01 10:27:27;;;;;;;3.42;0.90;;;;;;;21.36;37.47;101284.88;4995598;28;20055;-75
2021/10/01 10:29:53;;;;;;;2.78;0.88;;;;;;;21.47;37.48;101292.91;4992299;28;20109;-76
2021/10/01 10:32:24;;;;;;;2.78;0.90;;;;;;;21.59;36.56;101283.31;4983759;28;20111;-75
2021/10/01 10:34:57;;;;;;;2.15;0.90;;;;;;;21.71;36.46;101286.66;4990826;28;20461;-76
2021/10/01 10:37:40;;;;;;;1.48;0.77;;;;;;;21.80;35.57;101282.94;4961739;28;20643;-75
2021/10/01 10:40:09;;;;;;;1.88;0.90;;;;;;;21.89;36.58;101282.81;4985842;28;20112;-75
2021/10/01 10:42:47;;;;;;;2.15;0.88;;;;;;;22.01;36.51;101269.56;4989624;28;20794;-74
2021/10/01 10:45:22;;;;;;;1.98;0.70;;;;;;;22.14;35.41;101285.72;4971665;28;20051;-75
2021/10/01 10:48:00;;;;;;;2.13;0.88;;;;;;;22.21;36.17;101270.16;4987979;28;20050;-74
2021/10/01 10:50:50;;;;;;;2.03;0.80;;;;;;;22.29;35.05;101271.06;4986642;28;20054;-73
2021/10/01 10:53:20;;;;;;;1.67;0.90;;;;;;;22.36;35.40;101272.13;4989469;28;20054;-74
2021/10/01 10:55:51;;;;;;;2.88;0.88;;;;;;;22.43;35.53;101261.22;4990164;28;20074;-75
2021/10/01 11:00:55;;;;;;;2.35;0.80;;;;;;;22.52;34.82;101260.22;4988872;28;20108;-74
2021/10/01 11:03:28;;;;;;;3.30;0.88;;;;;;;22.55;34.58;101256.25;4989210;28;20061;-74
2021/10/01 11:06:18;;;;;;;2.20;0.90;;;;;;;22.58;34.74;101253.13;4989118;28;20066;-73
2021/10/01 11:08:51;;;;;;;2.65;0.85;;;;;;;22.62;34.47;101243.47;4988395;28;20132;-74
2021/10/01 11:11:33;;;;;;;3.95;1.10;;;;;;;22.66;34.07;101248.47;4991455;28;20053;-73
2021/10/01 11:14:28;;;;;;;1.52;0.70;;;;;;;22.64;34.35;101236.72;4978031;28;20054;-75
2021/10/01 11:16:55;;;;;;;2.25;0.85;;;;;;;22.69;34.40;101227.88;4988194;28;20054;-74
2021/10/01 11:19:40;;;;;;;2.65;0.80;;;;;;;22.79;34.11;101220.31;4990462;28;20066;-73
2021/10/01 11:22:26;;;;;;;3.60;0.88;;;;;;;22.80;33.66;101235.91;4987080;28;20081;-74
2021/10/01 11:25:14;;;;;;;2.67;1.08;;;;;;;22.85;33.86;101218.75;4987898;28;20054;-76
2021/10/01 11:27:53;;;;;;;3.00;0.95;;;;;;;22.91;33.69;101215.28;4989200;28;20090;-75
2021/10/01 11:30:20;;;;;;;1.17;0.70;;;;;;;22.92;34.11;101226.19;4992154;28;20057;-75
2021/10/01 11:32:49;;;;;;;2.70;0.98;;;;;;;22.95;34.59;101200.94;4995308;28;20042;-76
2021/10/01 11:35:16;;;;;;;2.05;0.80;;;;;;;23.01;33.84;101202.13;4997969;28;20046;-77
2021/10/01 11:37:46;;;;;;;1.80;0.70;;;;;;;23.08;33.74;101205.94;4989909;28;20048;-76
2021/10/01 11:40:25;;;;;;;1.70;0.80;;;;;;;23.14;33.69;101199.72;4990954;28;20054;-76
2021/10/01 11:42:55;;;;;;;2.35;0.82;;;;;;;23.17;33.72;101198.47;4948329;28;20116;-76
2021/10/01 11:45:28;;;;;;;1.77;0.88;;;;;;;23.21;33.68;101200.72;4989708;28;20073;-76
2021/10/01 11:47:58;;;;;;;1.58;0.65;;;;;;;23.26;33.62;101192.75;4986956;28;20141;-76
2021/10/01 11:50:39;;;;;;;1.48;0.68;;;;;;;23.31;32.99;101190.28;4989682;28;20113;-76
2021/10/01 11:53:17;;;;;;;1.85;0.70;;;;;;;23.34;33.73;101180.78;4989140;28;20056;-77
2021/10/01 11:56:01;;;;;;;2.00;0.98;;;;;;;23.41;32.48;101187.31;4990388;28;20082;-74
2021/10/01 11:58:30;;;;;;;2.28;0.90;;;;;;;23.42;33.42;101180.75;4972114;28;20054;-75
2021/10/01 12:01:10;;;;;;;2.58;0.80;;;;;;;23.48;32.65;101178.16;4989081;28;20042;-76
2021/10/01 12:03:54;;;;;;;1.80;0.77;;;;;;;23.50;32.83;101177.97;4987894;28;20042;-76
2021/10/01 12:06:25;;;;;;;2.20;0.80;;;;;;;23.53;33.28;101172.09;4970032;28;20051;-75
2021/10/01 12:08:56;;;;;;;2.63;0.90;;;;;;;23.57;33.27;101169.81;4989607;28;20050;-74
2021/10/01 12:11:29;;;;;;;2.50;0.80;;;;;;;23.62;33.33;101165.47;4988726;28;20051;-75
2021/10/01 12:14:18;;;;;;;2.58;0.90;;;;;;;23.65;32.58;101161.47;4972422;28;20054;-75
2021/10/01 12:17:00;;;;;;;1.85;0.98;;;;;;;23.71;32.20;101152.44;4989196;28;20046;-76
2021/10/01 12:19:29;;;;;;;1.42;0.75;;;;;;;23.72;32.99;101154.19;4987062;28;20714;-76
2021/10/01 12:22:38;;;;;;;3.45;1.00;;;;;;;23.77;32.28;101146.16;4988749;28;20062;-75
2021/10/01 12:25:06;;;;;;;1.55;0.80;;;;;;;23.78;32.50;101140.44;4992642;28;20050;-76
2021/10/01 12:27:40;;;;;;;2.10;0.80;;;;;;;23.84;32.07;101144.38;4974717;28;20054;-76
2021/10/01 12:30:08;;;;;;;2.22;0.88;;;;;;;23.86;32.15;101136.75;4987362;28;20112;-76
2021/10/01 12:32:35;;;;;;;2.53;0.73;;;;;;;23.88;32.60;101135.50;4990748;28;20097;-77
2021/10/01 12:35:02;;;;;;;2.70;0.90;;;;;;;23.93;32.13;101142.44;4991097;28;20326;-77
2021/10/01 12:37:31;;;;;;;1.77;0.75;;;;;;;23.96;32.08;101134.63;4990159;28;20070;-77
2021/10/01 12:40:00;;;;;;;2.42;0.75;;;;;;;23.98;31.81;101128.88;4990527;28;20379;-77
2021/10/01 12:42:35;;;;;;;2.00;0.88;;;;;;;24.00;31.95;101129.56;4989679;28;20135;-77
2021/10/01 12:45:04;;;;;;;2.05;0.82;;;;;;;24.00;32.10;101135.97;4997995;28;20062;-77
2021/10/01 12:47:40;;;;;;;2.05;0.75;;;;;;;24.07;31.25;101164.72;4990052;28;20101;-77
2021/10/01 12:50:14;;;;;;;1.88;0.85;;;;;;;24.09;31.09;101125.69;4988892;28;20401;-76
2021/10/01 12:52:44;;;;;;;2.88;1.00;;;;;;;24.09;31.95;101129.31;4989250;28;20073;-77
2021/10/01 12:55:15;;;;;;;3.05;1.08;;;;;;;24.12;31.24;101131.75;4988197;28;21750;-74
2021/10/01 12:57:52;;;;;;;3.35;0.93;;;;;;;24.13;30.51;101121.50;4986549;28;20104;-74
2021/10/01 13:00:27;;;;;;;3.67;1.10;;;;;;;24.14;31.19;101117.66;4985636;28;20050;-74
2021/10/01 13:03:00;;;;;;;2.17;0.98;;;;;;;24.15;31.33;101114.72;4987513;28;20050;-75
2021/10/01 13:05:40;;;;;;;1.73;0.90;;;;;;;24.15;30.92;101113.84;4990375;28;20070;-76
2021/10/01 13:08:08;;;;;;;2.08;0.90;;;;;;;24.12;31.64;101114.22;4986063;28;20052;-76
2021/10/01 13:10:56;;;;;;;3.38;0.90;;;;;;;24.16;31.23;101123.91;4994510;28;20049;-76
2021/10/01 13:13:28;;;;;;;3.45;0.90;;;;;;;24.16;31.53;101115.56;4992745;28;20081;-75